Terminal Aerodrome Forecast
Issued by NWS Cleveland, OH

Home | Current Version | Previous Version | Text Only | Print | Product List | Glossary Off
Versions: 1 2 3 4 5 6 7 8 9 10 11 12

776
FTUS41 KCLE 221136
TAFYNG
TAF
KYNG 221136Z 2212/2312 35010KT P6SM SCT015 OVC035
      TEMPO 2212/2215 BKN015
     FM222300 02006KT P6SM SCT035=

USA.gov is the U.S. government's official web portal to all federal, state and local government web resources and services.